sensor_id;sensor_type;location;lat;lon;timestamp;P1;durP1;ratioP1;P2;durP2;ratioP2
990;SDS011;484;48.128;11.602;2023-02-24T00:00:18;3.17;;;2.93;;
990;SDS011;484;48.128;11.602;2023-02-24T00:03:14;2.83;;;2.60;;
990;SDS011;484;48.128;11.602;2023-02-24T00:06:00;2.90;;;2.60;;
990;SDS011;484;48.128;11.602;2023-02-24T00:08:49;2.30;;;2.20;;
990;SDS011;484;48.128;11.602;2023-02-24T00:11:34;5.53;;;3.53;;
990;SDS011;484;48.128;11.602;2023-02-24T00:14:21;5.10;;;2.07;;
990;SDS011;484;48.128;11.602;2023-02-24T00:17:08;3.30;;;2.33;;
990;SDS011;484;48.128;11.602;2023-02-24T00:19:54;3.47;;;3.17;;
990;SDS011;484;48.128;11.602;2023-02-24T00:22:40;2.73;;;2.10;;
990;SDS011;484;48.128;11.602;2023-02-24T00:25:29;2.47;;;2.33;;
990;SDS011;484;48.128;11.602;2023-02-24T00:28:14;4.43;;;3.67;;
990;SDS011;484;48.128;11.602;2023-02-24T00:31:03;6.80;;;3.67;;
990;SDS011;484;48.128;11.602;2023-02-24T00:33:49;5.47;;;3.37;;
990;SDS011;484;48.128;11.602;2023-02-24T00:36:35;3.93;;;3.53;;
990;SDS011;484;48.128;11.602;2023-02-24T00:39:20;3.93;;;3.57;;
990;SDS011;484;48.128;11.602;2023-02-24T00:42:14;5.03;;;3.30;;
990;SDS011;484;48.128;11.602;2023-02-24T00:45:00;3.27;;;2.97;;
990;SDS011;484;48.128;11.602;2023-02-24T00:47:50;3.57;;;2.83;;
990;SDS011;484;48.128;11.602;2023-02-24T00:50:36;5.80;;;5.30;;
990;SDS011;484;48.128;11.602;2023-02-24T00:53:22;7.47;;;6.33;;
990;SDS011;484;48.128;11.602;2023-02-24T00:56:07;4.37;;;3.90;;
990;SDS011;484;48.128;11.602;2023-02-24T00:58:57;4.80;;;2.53;;
990;SDS011;484;48.128;11.602;2023-02-24T01:01:44;3.27;;;3.00;;
990;SDS011;484;48.128;11.602;2023-02-24T01:04:29;3.00;;;2.70;;
990;SDS011;484;48.128;11.602;2023-02-24T01:07:15;3.60;;;3.40;;
990;SDS011;484;48.128;11.602;2023-02-24T01:10:01;3.37;;;3.07;;
990;SDS011;484;48.128;11.602;2023-02-24T01:12:47;3.03;;;2.80;;
990;SDS011;484;48.128;11.602;2023-02-24T01:15:33;3.47;;;2.97;;
990;SDS011;484;48.128;11.602;2023-02-24T01:18:19;3.43;;;3.13;;
990;SDS011;484;48.128;11.602;2023-02-24T01:21:04;2.97;;;2.77;;
990;SDS011;484;48.128;11.602;2023-02-24T01:23:50;5.47;;;3.03;;
990;SDS011;484;48.128;11.602;2023-02-24T01:26:35;5.30;;;3.10;;
990;SDS011;484;48.128;11.602;2023-02-24T01:29:21;3.57;;;3.23;;
990;SDS011;484;48.128;11.602;2023-02-24T01:32:12;3.00;;;2.73;;
990;SDS011;484;48.128;11.602;2023-02-24T01:34:59;4.43;;;3.40;;
990;SDS011;484;48.128;11.602;2023-02-24T01:37:44;4.47;;;4.10;;
990;SDS011;484;48.128;11.602;2023-02-24T01:40:30;4.37;;;3.83;;
990;SDS011;484;48.128;11.602;2023-02-24T01:43:15;3.03;;;2.70;;
990;SDS011;484;48.128;11.602;2023-02-24T01:46:01;3.47;;;2.90;;
990;SDS011;484;48.128;11.602;2023-02-24T01:48:48;4.43;;;3.20;;
990;SDS011;484;48.128;11.602;2023-02-24T01:51:33;3.60;;;3.30;;
990;SDS011;484;48.128;11.602;2023-02-24T01:54:23;2.87;;;2.67;;
990;SDS011;484;48.128;11.602;2023-02-24T01:57:12;3.50;;;2.60;;
990;SDS011;484;48.128;11.602;2023-02-24T02:00:00;2.77;;;2.53;;
990;SDS011;484;48.128;11.602;2023-02-24T02:03:08;5.37;;;3.70;;
990;SDS011;484;48.128;11.602;2023-02-24T02:05:59;5.63;;;4.43;;
990;SDS011;484;48.128;11.602;2023-02-24T02:08:46;8.03;;;2.80;;
990;SDS011;484;48.128;11.602;2023-02-24T02:11:31;3.27;;;2.97;;
990;SDS011;484;48.128;11.602;2023-02-24T02:14:18;2.03;;;1.83;;
990;SDS011;484;48.128;11.602;2023-02-24T02:17:07;3.23;;;2.60;;
990;SDS011;484;48.128;11.602;2023-02-24T02:20:06;3.23;;;2.93;;
990;SDS011;484;48.128;11.602;2023-02-24T02:23:07;3.67;;;3.37;;
990;SDS011;484;48.128;11.602;2023-02-24T02:35:55;3.63;;;2.70;;
990;SDS011;484;48.128;11.602;2023-02-24T02:38:46;2.77;;;2.57;;
990;SDS011;484;48.128;11.602;2023-02-24T02:41:39;3.43;;;2.50;;
990;SDS011;484;48.128;11.602;2023-02-24T02:44:31;7.83;;;4.27;;
990;SDS011;484;48.128;11.602;2023-02-24T02:47:24;6.10;;;4.17;;
990;SDS011;484;48.128;11.602;2023-02-24T02:50:12;4.03;;;3.10;;
990;SDS011;484;48.128;11.602;2023-02-24T02:53:03;4.00;;;3.70;;
990;SDS011;484;48.128;11.602;2023-02-24T02:55:53;2.70;;;2.50;;
990;SDS011;484;48.128;11.602;2023-02-24T02:58:41;2.87;;;2.60;;
990;SDS011;484;48.128;11.602;2023-02-24T03:01:30;6.23;;;4.63;;
990;SDS011;484;48.128;11.602;2023-02-24T03:04:18;4.10;;;3.77;;
990;SDS011;484;48.128;11.602;2023-02-24T03:07:08;3.00;;;2.70;;
990;SDS011;484;48.128;11.602;2023-02-24T03:09:55;2.30;;;2.10;;
990;SDS011;484;48.128;11.602;2023-02-24T03:12:43;4.83;;;2.70;;
990;SDS011;484;48.128;11.602;2023-02-24T03:15:31;4.10;;;3.47;;
990;SDS011;484;48.128;11.602;2023-02-24T03:18:17;3.90;;;3.47;;
990;SDS011;484;48.128;11.602;2023-02-24T03:21:05;2.97;;;2.77;;
990;SDS011;484;48.128;11.602;2023-02-24T03:23:52;4.00;;;3.00;;
990;SDS011;484;48.128;11.602;2023-02-24T03:26:40;10.73;;;3.50;;
990;SDS011;484;48.128;11.602;2023-02-24T03:29:30;5.90;;;2.97;;
990;SDS011;484;48.128;11.602;2023-02-24T03:32:20;5.07;;;4.13;;
990;SDS011;484;48.128;11.602;2023-02-24T03:35:09;5.40;;;3.30;;
990;SDS011;484;48.128;11.602;2023-02-24T03:37:58;6.50;;;4.30;;
990;SDS011;484;48.128;11.602;2023-02-24T03:40:43;3.37;;;3.17;;
990;SDS011;484;48.128;11.602;2023-02-24T03:43:30;6.00;;;3.57;;
990;SDS011;484;48.128;11.602;2023-02-24T03:46:17;6.90;;;3.13;;
990;SDS011;484;48.128;11.602;2023-02-24T03:49:04;3.03;;;2.83;;
990;SDS011;484;48.128;11.602;2023-02-24T03:51:58;10.30;;;2.87;;
990;SDS011;484;48.128;11.602;2023-02-24T03:54:55;4.43;;;2.80;;
990;SDS011;484;48.128;11.602;2023-02-24T03:57:58;4.00;;;3.70;;
990;SDS011;484;48.128;11.602;2023-02-24T04:00:52;2.67;;;2.47;;
990;SDS011;484;48.128;11.602;2023-02-24T04:03:42;3.80;;;3.50;;
990;SDS011;484;48.128;11.602;2023-02-24T04:06:34;4.10;;;3.77;;
990;SDS011;484;48.128;11.602;2023-02-24T04:09:26;3.97;;;3.67;;
990;SDS011;484;48.128;11.602;2023-02-24T04:12:17;7.03;;;3.30;;
990;SDS011;484;48.128;11.602;2023-02-24T04:15:05;4.53;;;3.43;;
990;SDS011;484;48.128;11.602;2023-02-24T04:17:56;3.57;;;3.37;;
990;SDS011;484;48.128;11.602;2023-02-24T04:20:44;2.40;;;2.30;;
990;SDS011;484;48.128;11.602;2023-02-24T04:23:32;2.70;;;2.47;;
990;SDS011;484;48.128;11.602;2023-02-24T04:26:21;2.83;;;2.63;;
990;SDS011;484;48.128;11.602;2023-02-24T04:29:07;7.00;;;4.10;;
990;SDS011;484;48.128;11.602;2023-02-24T04:31:56;3.70;;;2.73;;
990;SDS011;484;48.128;11.602;2023-02-24T04:34:46;3.10;;;2.90;;
990;SDS011;484;48.128;11.602;2023-02-24T04:37:31;3.00;;;2.70;;
990;SDS011;484;48.128;11.602;2023-02-24T04:40:20;4.30;;;2.27;;
990;SDS011;484;48.128;11.602;2023-02-24T04:43:06;6.10;;;2.90;;
990;SDS011;484;48.128;11.602;2023-02-24T04:45:51;3.67;;;2.60;;
990;SDS011;484;48.128;11.602;2023-02-24T04:48:38;2.50;;;2.10;;
990;SDS011;484;48.128;11.602;2023-02-24T04:51:25;3.57;;;3.10;;
990;SDS011;484;48.128;11.602;2023-02-24T04:54:15;2.93;;;2.67;;
990;SDS011;484;48.128;11.602;2023-02-24T04:57:01;6.07;;;2.63;;
990;SDS011;484;48.128;11.602;2023-02-24T04:59:47;3.30;;;3.10;;
990;SDS011;484;48.128;11.602;2023-02-24T05:02:32;2.60;;;2.40;;
990;SDS011;484;48.128;11.602;2023-02-24T05:05:18;7.93;;;3.20;;
990;SDS011;484;48.128;11.602;2023-02-24T05:08:09;5.77;;;2.80;;
990;SDS011;484;48.128;11.602;2023-02-24T05:10:55;4.50;;;2.80;;
990;SDS011;484;48.128;11.602;2023-02-24T05:13:41;3.80;;;2.70;;
990;SDS011;484;48.128;11.602;2023-02-24T05:16:28;3.07;;;2.87;;
990;SDS011;484;48.128;11.602;2023-02-24T05:19:14;2.47;;;2.37;;
990;SDS011;484;48.128;11.602;2023-02-24T05:22:18;3.57;;;2.67;;
990;SDS011;484;48.128;11.602;2023-02-24T05:25:07;2.30;;;2.10;;
990;SDS011;484;48.128;11.602;2023-02-24T05:27:56;3.40;;;3.17;;
990;SDS011;484;48.128;11.602;2023-02-24T05:30:42;3.13;;;2.70;;
990;SDS011;484;48.128;11.602;2023-02-24T05:33:27;2.50;;;2.30;;
990;SDS011;484;48.128;11.602;2023-02-24T05:36:13;2.70;;;2.50;;
990;SDS011;484;48.128;11.602;2023-02-24T05:39:00;4.30;;;3.00;;
990;SDS011;484;48.128;11.602;2023-02-24T05:41:51;6.37;;;2.83;;
990;SDS011;484;48.128;11.602;2023-02-24T05:44:37;3.23;;;2.80;;
990;SDS011;484;48.128;11.602;2023-02-24T05:47:23;8.03;;;3.60;;
990;SDS011;484;48.128;11.602;2023-02-24T05:50:10;6.53;;;3.60;;
990;SDS011;484;48.128;11.602;2023-02-24T05:52:56;2.97;;;2.63;;
990;SDS011;484;48.128;11.602;2023-02-24T05:55:41;4.00;;;3.70;;
990;SDS011;484;48.128;11.602;2023-02-24T05:58:29;2.97;;;2.67;;
990;SDS011;484;48.128;11.602;2023-02-24T06:01:15;4.47;;;3.87;;
990;SDS011;484;48.128;11.602;2023-02-24T06:04:02;4.80;;;3.27;;
990;SDS011;484;48.128;11.602;2023-02-24T06:06:49;3.10;;;2.90;;
990;SDS011;484;48.128;11.602;2023-02-24T06:09:35;3.70;;;3.37;;
990;SDS011;484;48.128;11.602;2023-02-24T06:12:23;4.50;;;2.50;;
990;SDS011;484;48.128;11.602;2023-02-24T06:15:11;3.30;;;2.97;;
990;SDS011;484;48.128;11.602;2023-02-24T06:17:56;2.77;;;2.57;;
990;SDS011;484;48.128;11.602;2023-02-24T06:20:43;3.63;;;3.30;;
990;SDS011;484;48.128;11.602;2023-02-24T06:23:33;5.63;;;4.00;;
990;SDS011;484;48.128;11.602;2023-02-24T06:26:19;5.13;;;3.40;;
990;SDS011;484;48.128;11.602;2023-02-24T06:29:04;2.23;;;2.13;;
990;SDS011;484;48.128;11.602;2023-02-24T06:31:51;4.33;;;2.60;;
990;SDS011;484;48.128;11.602;2023-02-24T06:34:40;2.47;;;2.27;;
990;SDS011;484;48.128;11.602;2023-02-24T06:37:26;4.50;;;3.73;;
990;SDS011;484;48.128;11.602;2023-02-24T06:40:12;3.57;;;3.27;;
990;SDS011;484;48.128;11.602;2023-02-24T06:43:00;3.13;;;2.83;;
990;SDS011;484;48.128;11.602;2023-02-24T06:45:45;2.07;;;1.97;;
990;SDS011;484;48.128;11.602;2023-02-24T06:48:33;7.87;;;3.33;;
990;SDS011;484;48.128;11.602;2023-02-24T06:51:19;3.33;;;3.07;;
990;SDS011;484;48.128;11.602;2023-02-24T06:54:05;3.23;;;2.93;;
990;SDS011;484;48.128;11.602;2023-02-24T06:56:51;18.40;;;3.40;;
990;SDS011;484;48.128;11.602;2023-02-24T06:59:36;5.03;;;3.07;;
990;SDS011;484;48.128;11.602;2023-02-24T07:02:22;3.80;;;3.37;;
990;SDS011;484;48.128;11.602;2023-02-24T07:05:13;3.33;;;2.73;;
990;SDS011;484;48.128;11.602;2023-02-24T07:08:00;3.60;;;3.30;;
990;SDS011;484;48.128;11.602;2023-02-24T07:10:50;3.13;;;2.80;;
990;SDS011;484;48.128;11.602;2023-02-24T07:13:36;3.47;;;2.43;;
990;SDS011;484;48.128;11.602;2023-02-24T07:16:23;4.00;;;3.00;;
990;SDS011;484;48.128;11.602;2023-02-24T07:19:11;3.33;;;2.13;;
990;SDS011;484;48.128;11.602;2023-02-24T07:22:00;3.23;;;2.43;;
990;SDS011;484;48.128;11.602;2023-02-24T07:24:46;3.57;;;3.27;;
990;SDS011;484;48.128;11.602;2023-02-24T07:27:31;2.33;;;2.17;;
990;SDS011;484;48.128;11.602;2023-02-24T07:30:17;2.40;;;2.20;;
990;SDS011;484;48.128;11.602;2023-02-24T07:33:02;4.73;;;4.27;;
990;SDS011;484;48.128;11.602;2023-02-24T07:35:48;6.30;;;4.10;;
990;SDS011;484;48.128;11.602;2023-02-24T07:38:37;4.10;;;3.53;;
990;SDS011;484;48.128;11.602;2023-02-24T07:41:24;8.43;;;3.27;;
990;SDS011;484;48.128;11.602;2023-02-24T07:44:10;2.40;;;2.20;;
990;SDS011;484;48.128;11.602;2023-02-24T07:46:56;10.33;;;2.73;;
990;SDS011;484;48.128;11.602;2023-02-24T07:49:42;4.50;;;3.60;;
990;SDS011;484;48.128;11.602;2023-02-24T07:52:28;5.60;;;3.70;;
990;SDS011;484;48.128;11.602;2023-02-24T07:55:19;4.37;;;3.97;;
990;SDS011;484;48.128;11.602;2023-02-24T07:58:06;6.17;;;4.03;;
990;SDS011;484;48.128;11.602;2023-02-24T08:00:53;11.10;;;4.37;;
990;SDS011;484;48.128;11.602;2023-02-24T08:03:51;5.50;;;3.80;;
990;SDS011;484;48.128;11.602;2023-02-24T08:06:39;5.63;;;3.17;;
990;SDS011;484;48.128;11.602;2023-02-24T08:09:27;4.67;;;4.10;;
990;SDS011;484;48.128;11.602;2023-02-24T08:12:32;9.60;;;3.73;;
990;SDS011;484;48.128;11.602;2023-02-24T08:15:18;3.83;;;3.30;;
990;SDS011;484;48.128;11.602;2023-02-24T08:18:07;4.33;;;3.97;;
990;SDS011;484;48.128;11.602;2023-02-24T08:20:56;6.80;;;2.57;;
990;SDS011;484;48.128;11.602;2023-02-24T08:23:47;5.27;;;4.20;;
990;SDS011;484;48.128;11.602;2023-02-24T08:26:32;4.40;;;4.00;;
990;SDS011;484;48.128;11.602;2023-02-24T08:29:28;4.87;;;3.90;;
990;SDS011;484;48.128;11.602;2023-02-24T08:32:15;5.20;;;4.70;;
990;SDS011;484;48.128;11.602;2023-02-24T08:35:01;8.73;;;3.80;;
990;SDS011;484;48.128;11.602;2023-02-24T08:37:48;4.50;;;3.70;;
990;SDS011;484;48.128;11.602;2023-02-24T08:40:37;4.97;;;4.30;;
990;SDS011;484;48.128;11.602;2023-02-24T08:43:36;5.30;;;4.70;;
990;SDS011;484;48.128;11.602;2023-02-24T08:46:24;3.73;;;3.33;;
990;SDS011;484;48.128;11.602;2023-02-24T08:49:15;4.63;;;4.23;;
990;SDS011;484;48.128;11.602;2023-02-24T08:52:01;5.53;;;4.17;;
990;SDS011;484;48.128;11.602;2023-02-24T08:55:02;8.00;;;5.20;;
990;SDS011;484;48.128;11.602;2023-02-24T08:57:53;5.67;;;4.20;;
990;SDS011;484;48.128;11.602;2023-02-24T09:00:39;3.80;;;2.90;;
990;SDS011;484;48.128;11.602;2023-02-24T09:03:33;5.37;;;3.80;;
990;SDS011;484;48.128;11.602;2023-02-24T09:06:19;4.40;;;3.70;;
990;SDS011;484;48.128;11.602;2023-02-24T09:09:10;3.93;;;2.47;;
990;SDS011;484;48.128;11.602;2023-02-24T09:12:01;9.30;;;4.37;;
990;SDS011;484;48.128;11.602;2023-02-24T09:14:49;5.07;;;4.20;;
990;SDS011;484;48.128;11.602;2023-02-24T09:17:38;4.87;;;4.37;;
990;SDS011;484;48.128;11.602;2023-02-24T09:20:36;6.23;;;3.93;;
990;SDS011;484;48.128;11.602;2023-02-24T09:23:39;7.40;;;3.57;;
990;SDS011;484;48.128;11.602;2023-02-24T09:26:29;8.33;;;4.83;;
990;SDS011;484;48.128;11.602;2023-02-24T09:29:25;3.73;;;3.40;;
990;SDS011;484;48.128;11.602;2023-02-24T09:32:17;8.70;;;5.63;;
990;SDS011;484;48.128;11.602;2023-02-24T09:35:03;6.87;;;3.80;;
990;SDS011;484;48.128;11.602;2023-02-24T09:37:52;7.13;;;4.53;;
990;SDS011;484;48.128;11.602;2023-02-24T09:40:39;11.73;;;5.27;;
990;SDS011;484;48.128;11.602;2023-02-24T09:43:31;6.97;;;5.47;;
990;SDS011;484;48.128;11.602;2023-02-24T09:46:26;8.13;;;5.13;;
990;SDS011;484;48.128;11.602;2023-02-24T09:49:16;10.30;;;6.03;;
990;SDS011;484;48.128;11.602;2023-02-24T09:52:11;8.03;;;6.37;;
990;SDS011;484;48.128;11.602;2023-02-24T09:55:05;5.40;;;4.63;;
990;SDS011;484;48.128;11.602;2023-02-24T09:58:10;6.67;;;6.07;;
990;SDS011;484;48.128;11.602;2023-02-24T10:01:09;5.87;;;4.10;;
990;SDS011;484;48.128;11.602;2023-02-24T10:04:20;9.20;;;6.43;;
990;SDS011;484;48.128;11.602;2023-02-24T10:07:21;8.47;;;5.40;;
990;SDS011;484;48.128;11.602;2023-02-24T10:10:13;9.43;;;7.10;;
990;SDS011;484;48.128;11.602;2023-02-24T10:13:05;8.53;;;6.10;;
990;SDS011;484;48.128;11.602;2023-02-24T10:15:57;7.60;;;4.87;;
990;SDS011;484;48.128;11.602;2023-02-24T10:18:48;7.60;;;5.40;;
990;SDS011;484;48.128;11.602;2023-02-24T10:21:44;5.87;;;5.27;;
990;SDS011;484;48.128;11.602;2023-02-24T10:24:43;7.00;;;6.33;;
990;SDS011;484;48.128;11.602;2023-02-24T10:31:24;6.27;;;4.83;;
990;SDS011;484;48.128;11.602;2023-02-24T10:34:13;5.37;;;4.87;;
990;SDS011;484;48.128;11.602;2023-02-24T10:37:09;7.87;;;7.07;;
990;SDS011;484;48.128;11.602;2023-02-24T10:39:57;7.83;;;5.67;;
990;SDS011;484;48.128;11.602;2023-02-24T10:42:43;9.97;;;6.77;;
990;SDS011;484;48.128;11.602;2023-02-24T10:45:31;7.60;;;6.80;;
990;SDS011;484;48.128;11.602;2023-02-24T10:48:28;7.70;;;5.60;;
990;SDS011;484;48.128;11.602;2023-02-24T10:51:21;10.20;;;7.40;;
990;SDS011;484;48.128;11.602;2023-02-24T10:54:18;7.73;;;6.00;;
990;SDS011;484;48.128;11.602;2023-02-24T10:57:21;5.73;;;5.27;;
990;SDS011;484;48.128;11.602;2023-02-24T11:00:19;11.60;;;5.77;;
990;SDS011;484;48.128;11.602;2023-02-24T11:03:36;8.43;;;5.30;;
990;SDS011;484;48.128;11.602;2023-02-24T11:06:26;12.07;;;6.60;;
990;SDS011;484;48.128;11.602;2023-02-24T11:09:35;10.93;;;5.60;;
990;SDS011;484;48.128;11.602;2023-02-24T11:12:26;6.70;;;5.57;;
990;SDS011;484;48.128;11.602;2023-02-24T11:15:30;14.20;;;6.30;;
990;SDS011;484;48.128;11.602;2023-02-24T11:18:35;6.90;;;5.20;;
990;SDS011;484;48.128;11.602;2023-02-24T11:21:25;7.87;;;6.13;;
990;SDS011;484;48.128;11.602;2023-02-24T11:24:12;9.37;;;7.23;;
990;SDS011;484;48.128;11.602;2023-02-24T11:27:01;8.30;;;5.00;;
990;SDS011;484;48.128;11.602;2023-02-24T11:29:52;8.30;;;5.27;;
990;SDS011;484;48.128;11.602;2023-02-24T11:33:01;8.47;;;5.73;;
990;SDS011;484;48.128;11.602;2023-02-24T11:36:02;8.30;;;5.30;;
990;SDS011;484;48.128;11.602;2023-02-24T11:38:52;6.53;;;5.30;;
990;SDS011;484;48.128;11.602;2023-02-24T11:41:48;5.13;;;4.47;;
990;SDS011;484;48.128;11.602;2023-02-24T11:44:39;7.30;;;5.17;;
990;SDS011;484;48.128;11.602;2023-02-24T11:47:31;6.00;;;5.40;;
990;SDS011;484;48.128;11.602;2023-02-24T11:50:31;6.73;;;5.57;;
990;SDS011;484;48.128;11.602;2023-02-24T11:53:25;7.07;;;5.33;;
990;SDS011;484;48.128;11.602;2023-02-24T11:56:14;7.83;;;5.60;;
990;SDS011;484;48.128;11.602;2023-02-24T11:59:03;5.87;;;5.17;;
990;SDS011;484;48.128;11.602;2023-02-24T12:01:54;10.83;;;5.50;;
990;SDS011;484;48.128;11.602;2023-02-24T12:04:42;5.80;;;5.30;;
990;SDS011;484;48.128;11.602;2023-02-24T12:07:31;8.03;;;4.10;;
990;SDS011;484;48.128;11.602;2023-02-24T12:10:20;5.83;;;4.30;;
990;SDS011;484;48.128;11.602;2023-02-24T12:13:11;8.97;;;5.90;;
990;SDS011;484;48.128;11.602;2023-02-24T12:16:01;7.13;;;6.43;;
990;SDS011;484;48.128;11.602;2023-02-24T12:18:51;12.03;;;8.17;;
990;SDS011;484;48.128;11.602;2023-02-24T12:21:41;9.83;;;5.50;;
990;SDS011;484;48.128;11.602;2023-02-24T12:24:28;9.67;;;6.03;;
990;SDS011;484;48.128;11.602;2023-02-24T12:27:16;14.47;;;7.10;;
990;SDS011;484;48.128;11.602;2023-02-24T12:30:16;5.80;;;4.70;;
990;SDS011;484;48.128;11.602;2023-02-24T12:33:25;6.30;;;5.67;;
990;SDS011;484;48.128;11.602;2023-02-24T12:36:19;15.27;;;6.60;;
990;SDS011;484;48.128;11.602;2023-02-24T12:39:11;8.40;;;7.20;;
990;SDS011;484;48.128;11.602;2023-02-24T12:42:00;11.23;;;5.70;;
990;SDS011;484;48.128;11.602;2023-02-24T12:44:55;8.60;;;6.93;;
990;SDS011;484;48.128;11.602;2023-02-24T12:47:48;7.87;;;6.83;;
990;SDS011;484;48.128;11.602;2023-02-24T12:50:43;7.83;;;7.03;;
990;SDS011;484;48.128;11.602;2023-02-24T12:53:31;8.70;;;6.23;;
990;SDS011;484;48.128;11.602;2023-02-24T12:56:24;9.73;;;5.57;;
990;SDS011;484;48.128;11.602;2023-02-24T12:59:12;9.07;;;6.47;;
990;SDS011;484;48.128;11.602;2023-02-24T13:02:03;6.93;;;5.53;;
990;SDS011;484;48.128;11.602;2023-02-24T13:04:53;12.07;;;6.00;;
990;SDS011;484;48.128;11.602;2023-02-24T13:07:49;5.90;;;5.20;;
990;SDS011;484;48.128;11.602;2023-02-24T13:10:43;9.10;;;6.50;;
990;SDS011;484;48.128;11.602;2023-02-24T13:13:33;6.40;;;5.00;;
990;SDS011;484;48.128;11.602;2023-02-24T13:16:28;7.53;;;5.37;;
990;SDS011;484;48.128;11.602;2023-02-24T13:19:20;5.43;;;4.93;;
990;SDS011;484;48.128;11.602;2023-02-24T13:22:25;7.00;;;5.23;;
990;SDS011;484;48.128;11.602;2023-02-24T13:25:18;8.33;;;5.10;;
990;SDS011;484;48.128;11.602;2023-02-24T13:28:18;6.63;;;5.07;;
990;SDS011;484;48.128;11.602;2023-02-24T13:31:07;11.03;;;6.23;;
990;SDS011;484;48.128;11.602;2023-02-24T13:33:54;9.73;;;7.53;;
990;SDS011;484;48.128;11.602;2023-02-24T13:36:46;6.93;;;4.67;;
990;SDS011;484;48.128;11.602;2023-02-24T13:39:34;9.93;;;6.60;;
990;SDS011;484;48.128;11.602;2023-02-24T13:42:22;7.60;;;6.30;;
990;SDS011;484;48.128;11.602;2023-02-24T13:45:16;9.33;;;7.90;;
990;SDS011;484;48.128;11.602;2023-02-24T13:51:31;9.80;;;7.40;;
990;SDS011;484;48.128;11.602;2023-02-24T13:54:44;12.63;;;7.47;;
990;SDS011;484;48.128;11.602;2023-02-24T13:58:16;9.37;;;6.97;;
990;SDS011;484;48.128;11.602;2023-02-24T14:01:07;8.57;;;6.10;;
990;SDS011;484;48.128;11.602;2023-02-24T14:04:01;14.67;;;6.30;;
990;SDS011;484;48.128;11.602;2023-02-24T14:06:50;11.57;;;6.63;;
990;SDS011;484;48.128;11.602;2023-02-24T14:09:37;10.70;;;7.77;;
990;SDS011;484;48.128;11.602;2023-02-24T14:12:24;5.93;;;5.40;;
990;SDS011;484;48.128;11.602;2023-02-24T14:15:12;10.23;;;7.83;;
990;SDS011;484;48.128;11.602;2023-02-24T14:18:00;10.13;;;7.93;;
990;SDS011;484;48.128;11.602;2023-02-24T14:20:47;8.47;;;6.60;;
990;SDS011;484;48.128;11.602;2023-02-24T14:23:34;9.10;;;6.90;;
990;SDS011;484;48.128;11.602;2023-02-24T14:26:20;10.63;;;8.13;;
990;SDS011;484;48.128;11.602;2023-02-24T14:29:05;15.20;;;7.27;;
990;SDS011;484;48.128;11.602;2023-02-24T14:31:52;10.93;;;6.13;;
990;SDS011;484;48.128;11.602;2023-02-24T14:34:38;8.40;;;5.60;;
990;SDS011;484;48.128;11.602;2023-02-24T14:37:24;8.00;;;7.20;;
990;SDS011;484;48.128;11.602;2023-02-24T14:42:59;8.03;;;5.90;;
990;SDS011;484;48.128;11.602;2023-02-24T14:45:46;11.50;;;6.00;;
990;SDS011;484;48.128;11.602;2023-02-24T14:48:32;8.40;;;7.10;;
990;SDS011;484;48.128;11.602;2023-02-24T14:51:18;10.33;;;7.00;;
990;SDS011;484;48.128;11.602;2023-02-24T14:54:06;9.83;;;6.20;;
990;SDS011;484;48.128;11.602;2023-02-24T14:57:01;14.13;;;7.93;;
990;SDS011;484;48.128;11.602;2023-02-24T14:59:47;13.00;;;6.90;;
990;SDS011;484;48.128;11.602;2023-02-24T15:02:35;9.20;;;5.90;;
990;SDS011;484;48.128;11.602;2023-02-24T15:05:22;5.73;;;5.10;;
990;SDS011;484;48.128;11.602;2023-02-24T15:08:10;10.87;;;7.50;;
990;SDS011;484;48.128;11.602;2023-02-24T15:11:16;13.90;;;6.20;;
990;SDS011;484;48.128;11.602;2023-02-24T15:14:06;10.40;;;6.57;;
990;SDS011;484;48.128;11.602;2023-02-24T15:16:58;6.57;;;5.50;;
990;SDS011;484;48.128;11.602;2023-02-24T15:19:46;7.20;;;6.50;;
990;SDS011;484;48.128;11.602;2023-02-24T15:22:46;6.47;;;5.63;;
990;SDS011;484;48.128;11.602;2023-02-24T15:25:40;7.70;;;6.57;;
990;SDS011;484;48.128;11.602;2023-02-24T15:28:27;9.33;;;7.10;;
990;SDS011;484;48.128;11.602;2023-02-24T15:31:17;9.27;;;6.30;;
990;SDS011;484;48.128;11.602;2023-02-24T15:34:12;8.53;;;6.77;;
990;SDS011;484;48.128;11.602;2023-02-24T15:37:11;14.90;;;7.53;;
990;SDS011;484;48.128;11.602;2023-02-24T15:40:01;9.60;;;5.70;;
990;SDS011;484;48.128;11.602;2023-02-24T15:42:50;12.90;;;6.60;;
990;SDS011;484;48.128;11.602;2023-02-24T15:45:39;9.60;;;5.30;;
990;SDS011;484;48.128;11.602;2023-02-24T15:48:27;8.20;;;5.87;;
990;SDS011;484;48.128;11.602;2023-02-24T15:51:17;5.70;;;4.20;;
990;SDS011;484;48.128;11.602;2023-02-24T15:54:07;11.13;;;5.30;;
990;SDS011;484;48.128;11.602;2023-02-24T15:56:55;9.57;;;6.27;;
990;SDS011;484;48.128;11.602;2023-02-24T15:59:41;7.87;;;5.13;;
990;SDS011;484;48.128;11.602;2023-02-24T16:02:27;8.23;;;5.00;;
990;SDS011;484;48.128;11.602;2023-02-24T16:05:14;7.63;;;4.90;;
990;SDS011;484;48.128;11.602;2023-02-24T16:08:01;6.37;;;4.60;;
990;SDS011;484;48.128;11.602;2023-02-24T16:10:46;10.20;;;6.60;;
990;SDS011;484;48.128;11.602;2023-02-24T16:13:32;9.80;;;6.40;;
990;SDS011;484;48.128;11.602;2023-02-24T16:16:18;6.90;;;6.30;;
990;SDS011;484;48.128;11.602;2023-02-24T16:19:04;7.07;;;4.97;;
990;SDS011;484;48.128;11.602;2023-02-24T16:21:51;17.33;;;8.13;;
990;SDS011;484;48.128;11.602;2023-02-24T16:24:36;7.83;;;5.30;;
990;SDS011;484;48.128;11.602;2023-02-24T16:27:23;5.33;;;4.40;;
990;SDS011;484;48.128;11.602;2023-02-24T16:30:14;6.87;;;4.90;;
990;SDS011;484;48.128;11.602;2023-02-24T16:33:01;7.33;;;5.17;;
990;SDS011;484;48.128;11.602;2023-02-24T16:35:47;7.30;;;5.30;;
990;SDS011;484;48.128;11.602;2023-02-24T16:38:37;15.57;;;7.87;;
990;SDS011;484;48.128;11.602;2023-02-24T16:41:24;4.80;;;2.87;;
990;SDS011;484;48.128;11.602;2023-02-24T16:44:10;9.40;;;5.03;;
990;SDS011;484;48.128;11.602;2023-02-24T16:46:55;9.93;;;5.37;;
990;SDS011;484;48.128;11.602;2023-02-24T16:49:40;5.80;;;3.90;;
990;SDS011;484;48.128;11.602;2023-02-24T16:52:26;7.10;;;4.33;;
990;SDS011;484;48.128;11.602;2023-02-24T16:55:13;7.60;;;5.80;;
990;SDS011;484;48.128;11.602;2023-02-24T16:57:59;7.33;;;5.03;;
990;SDS011;484;48.128;11.602;2023-02-24T17:00:45;10.20;;;4.60;;
990;SDS011;484;48.128;11.602;2023-02-24T17:03:44;9.07;;;3.97;;
990;SDS011;484;48.128;11.602;2023-02-24T17:06:30;12.53;;;4.33;;
990;SDS011;484;48.128;11.602;2023-02-24T17:09:16;10.13;;;6.00;;
990;SDS011;484;48.128;11.602;2023-02-24T17:12:03;3.97;;;3.50;;
990;SDS011;484;48.128;11.602;2023-02-24T17:14:49;4.30;;;3.83;;
990;SDS011;484;48.128;11.602;2023-02-24T17:17:34;6.47;;;3.20;;
990;SDS011;484;48.128;11.602;2023-02-24T17:20:20;4.37;;;3.53;;
990;SDS011;484;48.128;11.602;2023-02-24T17:23:05;5.83;;;3.87;;
990;SDS011;484;48.128;11.602;2023-02-24T17:25:53;16.87;;;3.17;;
990;SDS011;484;48.128;11.602;2023-02-24T17:28:42;4.10;;;2.73;;
990;SDS011;484;48.128;11.602;2023-02-24T17:31:27;3.03;;;2.60;;
990;SDS011;484;48.128;11.602;2023-02-24T17:34:14;8.83;;;2.20;;
990;SDS011;484;48.128;11.602;2023-02-24T17:37:00;2.70;;;1.80;;
990;SDS011;484;48.128;11.602;2023-02-24T17:39:45;3.03;;;1.93;;
990;SDS011;484;48.128;11.602;2023-02-24T17:42:31;6.20;;;3.10;;
990;SDS011;484;48.128;11.602;2023-02-24T17:45:17;2.47;;;1.60;;
990;SDS011;484;48.128;11.602;2023-02-24T17:48:03;6.90;;;2.63;;
990;SDS011;484;48.128;11.602;2023-02-24T17:50:49;1.20;;;1.20;;
990;SDS011;484;48.128;11.602;2023-02-24T17:53:34;1.23;;;1.17;;
990;SDS011;484;48.128;11.602;2023-02-24T17:56:20;5.13;;;1.70;;
990;SDS011;484;48.128;11.602;2023-02-24T17:59:05;9.40;;;2.43;;
990;SDS011;484;48.128;11.602;2023-02-24T18:01:53;3.37;;;1.60;;
990;SDS011;484;48.128;11.602;2023-02-24T18:04:38;5.10;;;1.93;;
990;SDS011;484;48.128;11.602;2023-02-24T18:07:24;3.10;;;1.70;;